createdAt,value
2016-07-16T00:00:58.175Z,0
2016-07-16T00:01:58.525Z,0
2016-07-16T00:02:58.158Z,0
2016-07-16T00:03:58.158Z,0
2016-07-16T00:04:58.147Z,0
2016-07-16T00:05:58.144Z,0
2016-07-16T00:06:58.140Z,0
2016-07-16T00:07:58.130Z,0
2016-07-16T00:08:58.134Z,0
2016-07-16T00:09:58.125Z,0
2016-07-16T00:10:58.116Z,0
2016-07-16T00:11:58.120Z,0
2016-07-16T00:12:58.106Z,0
2016-07-16T00:13:58.106Z,0
2016-07-16T00:14:58.105Z,0
2016-07-16T00:15:58.093Z,0
2016-07-16T00:16:58.089Z,0
2016-07-16T00:17:58.086Z,0
2016-07-16T00:18:58.071Z,0
2016-07-16T00:19:58.070Z,0
2016-07-16T00:20:58.071Z,0
2016-07-16T00:21:58.061Z,0
2016-07-16T00:22:58.111Z,0
2016-07-16T00:23:58.055Z,0
2016-07-16T00:24:58.043Z,0
2016-07-16T00:25:58.042Z,0
2016-07-16T00:26:58.035Z,0
2016-07-16T00:27:58.035Z,0
2016-07-16T00:28:58.029Z,0
2016-07-16T00:29:58.027Z,0
2016-07-16T00:30:58.012Z,0
2016-07-16T00:31:58.015Z,0
2016-07-16T00:32:58.011Z,0
2016-07-16T00:33:57.999Z,0
2016-07-16T00:34:57.996Z,0
2016-07-16T00:35:57.991Z,0
2016-07-16T00:36:57.982Z,0
2016-07-16T00:37:57.978Z,0
2016-07-16T00:38:57.975Z,0
2016-07-16T00:39:57.971Z,0
2016-07-16T00:40:57.959Z,0
2016-07-16T00:41:57.958Z,0
2016-07-16T00:42:57.952Z,0
2016-07-16T00:43:57.947Z,0
2016-07-16T00:44:57.943Z,0
2016-07-16T00:45:57.933Z,0
2016-07-16T00:46:57.935Z,0
2016-07-16T00:47:57.928Z,0
2016-07-16T00:48:57.920Z,0
2016-07-16T00:49:57.912Z,0
2016-07-16T00:50:57.910Z,0
2016-07-16T00:51:57.898Z,0
2016-07-16T00:52:57.893Z,0
2016-07-16T00:53:57.900Z,0
2016-07-16T00:54:57.881Z,0
2016-07-16T00:55:57.879Z,0
2016-07-16T00:57:59.444Z,0
2016-07-16T00:58:58.570Z,0
2016-07-16T00:59:59.268Z,0
2016-07-16T01:00:59.703Z,0
2016-07-16T01:01:58.695Z,0
2016-07-16T01:02:57.842Z,0
2016-07-16T01:03:57.838Z,0
2016-07-16T01:04:58.686Z,0
2016-07-16T01:05:58.743Z,0
2016-07-16T01:07:01.110Z,0
2016-07-16T01:08:00.182Z,0
2016-07-16T01:09:14.093Z,0
2016-07-16T01:09:58.889Z,0
2016-07-16T01:10:58.454Z,0
2016-07-16T01:11:57.796Z,0
2016-07-16T01:12:57.882Z,0
2016-07-16T01:14:13.156Z,0
2016-07-16T01:15:12.749Z,0
2016-07-16T01:16:13.852Z,0
2016-07-16T01:16:58.773Z,0
2016-07-16T01:17:59.311Z,0
2016-07-16T01:18:57.763Z,0
2016-07-16T01:19:57.750Z,0
2016-07-16T01:20:57.750Z,0
2016-07-16T01:21:57.746Z,0
2016-07-16T01:22:57.745Z,0
2016-07-16T01:23:57.734Z,0
2016-07-16T01:24:57.722Z,0
2016-07-16T01:25:57.730Z,0
2016-07-16T01:26:57.713Z,0
2016-07-16T01:27:57.709Z,0
2016-07-16T01:28:57.706Z,0
2016-07-16T01:29:57.692Z,0
2016-07-16T01:30:57.692Z,0
2016-07-16T01:31:57.687Z,0
2016-07-16T01:32:57.678Z,0
2016-07-16T01:33:57.671Z,0
2016-07-16T01:34:57.671Z,0
2016-07-16T01:35:57.664Z,0
2016-07-16T01:36:58.351Z,0
2016-07-16T01:37:57.648Z,0
2016-07-16T01:38:57.660Z,0
2016-07-16T01:39:57.639Z,0
2016-07-16T01:40:57.634Z,0
2016-07-16T01:42:57.621Z,0
2016-07-16T01:43:57.611Z,0
2016-07-16T01:44:57.609Z,0
2016-07-16T01:45:57.609Z,0
2016-07-16T01:46:57.600Z,0
2016-07-16T01:47:57.597Z,0
2016-07-16T01:48:57.597Z,0
2016-07-16T01:49:57.586Z,0
2016-07-16T01:50:57.577Z,0
2016-07-16T01:51:57.569Z,0
2016-07-16T01:52:57.560Z,0
2016-07-16T01:53:57.557Z,0
2016-07-16T01:54:57.554Z,0
2016-07-16T01:55:57.559Z,0
2016-07-16T01:56:57.543Z,0
2016-07-16T01:57:57.533Z,0
2016-07-16T01:58:57.530Z,0
2016-07-16T01:59:57.520Z,0
2016-07-16T02:00:57.525Z,0
2016-07-16T02:01:57.506Z,0
2016-07-16T02:02:57.514Z,0
2016-07-16T02:03:57.505Z,0
2016-07-16T02:04:57.497Z,0
2016-07-16T02:05:57.488Z,0
2016-07-16T02:06:57.487Z,0
2016-07-16T02:07:57.484Z,0
2016-07-16T02:08:57.468Z,0
2016-07-16T02:09:57.476Z,0
2016-07-16T02:10:57.466Z,4
2016-07-16T02:11:57.455Z,4
2016-07-16T02:12:57.460Z,4
2016-07-16T02:13:57.448Z,0
2016-07-16T02:14:57.437Z,0
2016-07-16T02:15:58.490Z,4
2016-07-16T02:16:58.358Z,4
2016-07-16T02:18:00.181Z,4
2016-07-16T02:18:58.481Z,4
2016-07-16T02:19:58.535Z,4
2016-07-16T02:20:58.039Z,4
2016-07-16T02:21:57.393Z,4
2016-07-16T02:22:57.940Z,4
2016-07-16T02:24:12.298Z,8
2016-07-16T02:24:59.527Z,8
2016-07-16T02:25:59.845Z,8
2016-07-16T02:26:58.592Z,12
2016-07-16T02:27:57.459Z,12
2016-07-16T02:28:58.023Z,8
2016-07-16T02:29:58.084Z,12
2016-07-16T02:30:57.352Z,16
2016-07-16T02:32:13.505Z,20
2016-07-16T02:32:58.933Z,20
2016-07-16T02:33:58.077Z,20
2016-07-16T02:34:57.968Z,24
2016-07-16T02:36:12.920Z,28
2016-07-16T02:36:57.757Z,32
2016-07-16T02:37:57.758Z,36
2016-07-16T02:38:57.309Z,40
2016-07-16T02:39:57.289Z,48
2016-07-16T02:40:57.287Z,52
2016-07-16T02:41:57.278Z,56
2016-07-16T02:42:57.269Z,64
2016-07-16T02:43:57.270Z,72
2016-07-16T02:44:57.256Z,80
2016-07-16T02:45:57.248Z,88
2016-07-16T02:46:57.259Z,100
2016-07-16T02:47:57.240Z,112
2016-07-16T02:48:57.241Z,120
2016-07-16T02:49:57.251Z,136
2016-07-16T02:50:57.236Z,148
2016-07-16T02:51:57.220Z,164
2016-07-16T02:52:57.212Z,180
2016-07-16T02:53:57.210Z,196
2016-07-16T02:54:57.196Z,212
2016-07-16T02:55:57.187Z,232
2016-07-16T02:56:57.188Z,256
2016-07-16T02:57:57.193Z,276
2016-07-16T02:58:57.181Z,296
2016-07-16T02:59:57.166Z,324
2016-07-16T03:00:57.159Z,344
2016-07-16T03:01:57.162Z,372
2016-07-16T03:02:57.149Z,400
2016-07-16T03:03:57.148Z,428
2016-07-16T03:04:57.141Z,460
2016-07-16T03:05:57.137Z,492
2016-07-16T03:06:57.127Z,528
2016-07-16T03:07:57.123Z,560
2016-07-16T03:08:57.114Z,596
2016-07-16T03:09:57.111Z,636
2016-07-16T03:10:57.119Z,668
2016-07-16T03:11:57.092Z,712
2016-07-16T03:12:57.091Z,752
2016-07-16T03:13:57.080Z,796
2016-07-16T03:14:57.069Z,840
2016-07-16T03:15:57.072Z,884
2016-07-16T03:16:57.068Z,932
2016-07-16T03:17:57.064Z,976
2016-07-16T03:18:57.055Z,1024
2016-07-16T03:19:57.049Z,1072
2016-07-16T03:20:57.042Z,1124
2016-07-16T03:21:57.038Z,1168
2016-07-16T03:22:57.087Z,1224
2016-07-16T03:23:57.029Z,1276
2016-07-16T03:24:57.019Z,1328
2016-07-16T03:25:57.019Z,1376
2016-07-16T03:26:57.004Z,1432
2016-07-16T03:27:57.002Z,1484
2016-07-16T03:28:56.990Z,1536
2016-07-16T03:29:56.982Z,1592
2016-07-16T03:30:57.001Z,1648
2016-07-16T03:31:56.981Z,1704
2016-07-16T03:32:56.967Z,1764
2016-07-16T03:34:57.875Z,1888
2016-07-16T03:35:58.655Z,1952
2016-07-16T03:36:57.762Z,2024
2016-07-16T03:37:58.647Z,2120
2016-07-16T03:38:56.941Z,2288
2016-07-16T03:39:56.929Z,2564
2016-07-16T03:41:57.813Z,3128
2016-07-16T03:42:59.816Z,3308
2016-07-16T03:43:59.761Z,3412
2016-07-16T03:44:58.909Z,3528
2016-07-16T03:45:58.641Z,3640
2016-07-16T03:46:58.026Z,3756
2016-07-16T03:47:56.880Z,3868
2016-07-16T03:48:57.023Z,3984
2016-07-16T03:50:11.782Z,4124
2016-07-16T03:51:11.827Z,4244
2016-07-16T03:51:57.405Z,4320
2016-07-16T03:53:12.172Z,4484
2016-07-16T03:53:56.843Z,4584
2016-07-16T03:55:12.514Z,4904
2016-07-16T03:55:56.990Z,5396
2016-07-16T03:56:57.084Z,5968
2016-07-16T03:57:56.828Z,6152
2016-07-16T03:58:56.833Z,6020
2016-07-16T03:59:56.823Z,6168
2016-07-16T04:00:56.818Z,6396
2016-07-16T04:01:56.824Z,6404
2016-07-16T04:02:56.822Z,6380
2016-07-16T04:03:56.819Z,6724
2016-07-16T04:04:56.815Z,7212
2016-07-16T04:05:56.825Z,7216
2016-07-16T04:06:56.810Z,7072
2016-07-16T04:07:56.804Z,7120
2016-07-16T04:08:56.807Z,7464
2016-07-16T04:09:56.805Z,7828
2016-07-16T04:10:56.800Z,8140
2016-07-16T04:11:56.800Z,8316
2016-07-16T04:12:56.807Z,8448
2016-07-16T04:13:56.802Z,8464
2016-07-16T04:14:56.793Z,8512
2016-07-16T04:15:56.819Z,8844
2016-07-16T04:16:56.805Z,9300
2016-07-16T04:17:56.794Z,9400
2016-07-16T04:18:56.801Z,9264
2016-07-16T04:19:56.796Z,9632
2016-07-16T04:20:56.802Z,9500
2016-07-16T04:21:56.813Z,9680
2016-07-16T04:22:56.805Z,10380
2016-07-16T04:23:56.825Z,11552
2016-07-16T04:24:56.814Z,11588
2016-07-16T04:25:56.813Z,11768
2016-07-16T04:26:56.818Z,11928
2016-07-16T04:27:56.817Z,12568
2016-07-16T04:28:56.823Z,13156
2016-07-16T04:29:56.819Z,13672
2016-07-16T04:30:56.837Z,13952
2016-07-16T04:31:56.830Z,14048
2016-07-16T04:32:56.835Z,14720
2016-07-16T04:33:56.847Z,15776
2016-07-16T04:34:56.842Z,16800
2016-07-16T04:35:57.540Z,17728
2016-07-16T04:36:56.857Z,18400
2016-07-16T04:37:56.855Z,18336
2016-07-16T04:38:56.860Z,19328
2016-07-16T04:39:56.872Z,19552
2016-07-16T04:40:56.885Z,19296
2016-07-16T04:41:56.881Z,19648
2016-07-16T04:42:56.892Z,19584
2016-07-16T04:43:56.899Z,19328
2016-07-16T04:44:56.905Z,19360
2016-07-16T04:45:56.910Z,19008
2016-07-16T04:46:56.914Z,17248
2016-07-16T04:47:56.929Z,15360
2016-07-16T04:48:56.935Z,12500
2016-07-16T04:49:56.943Z,16480
2016-07-16T04:50:56.951Z,18464
2016-07-16T04:52:00.801Z,19328
2016-07-16T04:52:58.487Z,20736
2016-07-16T04:53:58.824Z,21760
2016-07-16T04:54:58.890Z,23328
2016-07-16T04:55:57.821Z,24768
2016-07-16T04:56:57.017Z,26144
2016-07-16T04:57:57.006Z,26944
2016-07-16T04:58:57.024Z,27872
2016-07-16T05:01:59.568Z,27968
2016-07-16T05:02:58.922Z,27776
2016-07-16T05:03:59.471Z,26528
2016-07-16T05:05:00.118Z,25664
2016-07-16T05:05:57.085Z,20992
2016-07-16T05:06:57.100Z,16096
2016-07-16T05:07:57.354Z,19936
2016-07-16T05:09:12.735Z,23008
2016-07-16T05:09:58.375Z,23328
2016-07-16T05:10:57.132Z,15116
2016-07-16T05:12:58.402Z,21056
2016-07-16T05:13:57.667Z,23040
2016-07-16T05:14:57.179Z,20640
2016-07-16T05:15:57.194Z,21952
2016-07-16T05:17:57.413Z,29824
2016-07-16T05:18:57.224Z,17472
2016-07-16T05:19:57.232Z,22240
2016-07-16T05:20:57.239Z,19488
2016-07-16T05:21:57.252Z,21632
2016-07-16T05:22:57.262Z,12724
2016-07-16T05:23:57.263Z,17024
2016-07-16T05:24:57.279Z,18496
2016-07-16T05:25:57.292Z,28064
2016-07-16T05:26:57.295Z,26272
2016-07-16T05:27:57.308Z,12272
2016-07-16T05:28:57.330Z,26816
2016-07-16T05:29:57.327Z,27680
2016-07-16T05:30:57.337Z,27040
2016-07-16T05:31:57.349Z,24224
2016-07-16T05:32:57.358Z,26688
2016-07-16T05:33:57.369Z,28768
2016-07-16T05:34:57.374Z,27648
2016-07-16T05:35:57.388Z,28256
2016-07-16T05:36:57.393Z,31136
2016-07-16T05:37:57.408Z,31456
2016-07-16T05:38:57.422Z,30368
2016-07-16T05:39:57.430Z,30720
2016-07-16T05:40:57.445Z,31904
2016-07-16T05:41:57.448Z,33184
2016-07-16T05:42:57.472Z,33344
2016-07-16T05:43:57.471Z,32384
2016-07-16T05:44:57.481Z,31360
2016-07-16T05:45:57.494Z,31264
2016-07-16T05:46:57.507Z,31456
2016-07-16T05:47:57.513Z,31936
2016-07-16T05:50:57.544Z,31232
2016-07-16T05:51:57.555Z,36160
2016-07-16T05:52:57.566Z,36192
2016-07-16T05:53:57.579Z,36576
2016-07-16T05:54:57.607Z,35264
2016-07-16T05:55:57.607Z,33632
2016-07-16T05:56:57.620Z,35616
2016-07-16T05:57:57.645Z,38848
2016-07-16T05:58:57.637Z,41248
2016-07-16T06:00:57.660Z,38656
2016-07-16T06:01:57.674Z,41088
2016-07-16T06:02:57.682Z,40608
2016-07-16T06:03:57.700Z,37632
2016-07-16T06:04:57.729Z,35104
2016-07-16T06:05:57.726Z,40608
2016-07-16T06:06:57.732Z,41056
2016-07-16T06:07:57.745Z,40992
2016-07-16T06:08:57.763Z,42208
2016-07-16T06:09:57.782Z,44928
2016-07-16T06:10:59.307Z,45056
2016-07-16T06:11:59.128Z,44416
2016-07-16T06:12:58.554Z,44032
2016-07-16T06:13:58.624Z,39936
2016-07-16T06:14:58.397Z,41536
2016-07-16T06:15:57.861Z,42240
2016-07-16T06:16:58.188Z,44448
2016-07-16T06:18:12.804Z,46272
2016-07-16T06:20:15.004Z,45056
2016-07-16T06:21:00.546Z,45952
2016-07-16T06:21:59.022Z,45920
2016-07-16T06:22:58.055Z,47680
2016-07-16T06:23:57.968Z,43008
2016-07-16T06:24:58.190Z,40032
2016-07-16T06:25:58.648Z,27232
2016-07-16T06:27:13.696Z,44096
2016-07-16T06:27:58.533Z,47552
2016-07-16T06:28:58.496Z,49568
2016-07-16T06:30:58.087Z,53440
2016-07-16T06:31:58.494Z,42208
2016-07-16T06:32:58.408Z,48768
2016-07-16T06:33:58.120Z,46528
2016-07-16T06:34:58.142Z,48992
2016-07-16T06:35:58.161Z,49088
2016-07-16T06:36:58.168Z,52864
2016-07-16T06:37:58.185Z,47712
2016-07-16T06:38:58.193Z,50112
2016-07-16T06:39:58.217Z,50112
2016-07-16T06:40:58.236Z,49376
2016-07-16T06:41:58.247Z,53952
2016-07-16T06:42:58.262Z,61088
2016-07-16T06:43:58.269Z,60768
2016-07-16T06:44:58.293Z,55744
2016-07-16T06:45:58.311Z,52256
2016-07-16T06:46:58.327Z,52128
2016-07-16T06:47:58.346Z,52224
2016-07-16T06:48:58.358Z,52288
2016-07-16T06:49:58.376Z,52064
2016-07-16T06:50:58.395Z,59200
2016-07-16T06:51:58.410Z,64448
2016-07-16T06:52:58.427Z,64128
2016-07-16T06:53:58.440Z,63200
2016-07-16T06:54:58.454Z,65184
2016-07-16T06:55:58.478Z,63264
2016-07-16T06:56:58.494Z,62560
2016-07-16T06:57:58.511Z,63488
2016-07-16T06:58:58.531Z,67104
2016-07-16T06:59:58.540Z,69280
2016-07-16T07:00:58.555Z,67232
2016-07-16T07:01:58.572Z,65440
2016-07-16T07:02:59.290Z,68064
2016-07-16T07:03:58.614Z,75328
2016-07-16T07:04:58.627Z,79616
2016-07-16T07:05:58.641Z,77952
2016-07-16T07:06:58.660Z,73888
2016-07-16T07:07:59.383Z,71872
2016-07-16T07:08:58.697Z,71648
2016-07-16T07:09:59.423Z,71840
2016-07-16T07:10:58.739Z,71936
2016-07-16T07:11:58.754Z,73984
2016-07-16T07:12:58.771Z,76736
2016-07-16T07:13:58.790Z,76896
2016-07-16T07:14:58.814Z,76448
2016-07-16T07:15:58.824Z,75488
2016-07-16T07:16:58.845Z,76224
2016-07-16T07:17:58.874Z,76896
2016-07-16T07:18:58.894Z,79712
2016-07-16T07:19:58.915Z,82176
2016-07-16T07:20:58.929Z,84864
2016-07-16T07:21:58.946Z,85152
2016-07-16T07:22:58.971Z,82720
2016-07-16T07:23:58.994Z,81248
2016-07-16T07:24:59.007Z,80096
2016-07-16T07:25:59.028Z,81472
2016-07-16T07:26:59.049Z,79040
2016-07-16T07:27:59.063Z,79424
2016-07-16T07:29:01.313Z,84160
2016-07-16T07:30:00.624Z,89696
2016-07-16T07:30:59.660Z,91840
2016-07-16T07:31:59.140Z,89536
2016-07-16T07:32:59.886Z,86944
2016-07-16T07:34:00.240Z,87360
2016-07-16T07:34:59.527Z,90368
2016-07-16T07:36:01.663Z,92032
2016-07-16T07:36:59.699Z,89216
2016-07-16T07:39:00.256Z,74208
2016-07-16T07:40:01.538Z,76224
2016-07-16T07:41:01.716Z,85440
2016-07-16T07:41:59.534Z,90304
2016-07-16T07:43:00.508Z,90272
2016-07-16T07:44:00.242Z,83552
2016-07-16T07:45:00.661Z,87712
2016-07-16T07:48:59.935Z,85728
2016-07-16T07:49:59.855Z,83712
2016-07-16T07:50:59.531Z,85216
2016-07-16T07:51:59.543Z,84928
2016-07-16T07:52:59.565Z,87776
2016-07-16T07:53:59.588Z,85024
2016-07-16T07:54:59.608Z,81632
2016-07-16T07:55:59.622Z,72928
2016-07-16T07:57:01.226Z,65152
2016-07-16T07:57:59.674Z,67968
2016-07-16T07:58:59.690Z,67296
2016-07-16T07:59:59.714Z,70720
2016-07-16T08:00:59.729Z,25088
2016-07-16T08:01:59.743Z,71168
2016-07-16T08:02:59.766Z,74688
2016-07-16T08:03:59.784Z,15312
2016-07-16T08:05:59.823Z,74336
2016-07-16T08:06:59.846Z,75968
2016-07-16T08:07:59.872Z,69536
2016-07-16T08:09:59.906Z,81888
2016-07-16T08:11:01.438Z,82624
2016-07-16T08:12:59.959Z,84448
2016-07-16T08:13:59.973Z,96448
2016-07-16T08:14:59.994Z,103904
2016-07-16T08:16:00.009Z,108416
2016-07-16T08:17:00.032Z,110464
2016-07-16T08:18:00.053Z,115104
2016-07-16T08:19:00.067Z,116832
2016-07-16T08:20:00.089Z,101568
2016-07-16T08:21:00.112Z,104992
2016-07-16T08:22:00.141Z,101664
2016-07-16T08:23:00.142Z,101472
2016-07-16T08:24:00.169Z,90144
2016-07-16T08:25:00.188Z,77696
2016-07-16T08:26:00.207Z,79744
2016-07-16T08:27:00.234Z,82112
2016-07-16T08:28:00.256Z,81216
2016-07-16T08:29:00.280Z,65536
2016-07-16T08:30:00.290Z,17472
2016-07-16T08:31:00.310Z,18848
2016-07-16T08:32:00.333Z,85536
2016-07-16T08:33:00.346Z,85888
2016-07-16T08:34:00.370Z,86848
2016-07-16T08:35:00.394Z,75136
2016-07-16T08:36:00.413Z,85568
2016-07-16T08:37:00.427Z,32800
2016-07-16T08:38:00.455Z,23776
2016-07-16T08:39:00.463Z,58112
2016-07-16T08:40:00.489Z,25280
2016-07-16T08:41:00.502Z,69472
2016-07-16T08:42:00.532Z,17760
2016-07-16T08:43:00.543Z,17632
2016-07-16T08:44:00.570Z,82336
2016-07-16T08:45:00.576Z,28928
2016-07-16T08:46:00.600Z,61600
2016-07-16T08:47:03.492Z,76160
2016-07-16T08:48:04.092Z,85856
2016-07-16T08:49:02.210Z,17600
2016-07-16T08:50:02.354Z,13960
2016-07-16T08:51:01.283Z,13180
2016-07-16T08:52:00.690Z,13944
2016-07-16T08:53:00.709Z,15152
2016-07-16T08:54:01.971Z,15956
2016-07-16T08:55:00.892Z,16240
2016-07-16T08:57:17.096Z,14644
2016-07-16T08:58:02.587Z,14788
2016-07-16T08:59:03.318Z,15716
2016-07-16T09:00:00.799Z,40384
2016-07-16T09:01:00.815Z,18048
2016-07-16T09:02:01.044Z,17504
2016-07-16T09:03:01.323Z,16740
2016-07-16T09:05:01.511Z,16488
2016-07-16T09:06:00.871Z,17108
2016-07-16T09:07:01.278Z,16792
2016-07-16T09:09:00.907Z,18464
2016-07-16T09:10:00.912Z,19712
2016-07-16T09:11:00.926Z,21312
2016-07-16T09:12:00.936Z,20864
2016-07-16T09:13:00.941Z,20352
2016-07-16T09:14:00.953Z,19968
2016-07-16T09:15:00.966Z,18656
2016-07-16T09:16:01.665Z,18688
2016-07-16T09:17:00.984Z,16960
2016-07-16T09:18:00.995Z,15240
2016-07-16T09:19:00.999Z,14900
2016-07-16T09:20:01.015Z,14888
2016-07-16T09:21:01.017Z,15148
2016-07-16T09:22:01.032Z,15540
2016-07-16T09:23:01.049Z,14636
2016-07-16T09:24:01.051Z,13056
2016-07-16T09:25:01.046Z,11784
2016-07-16T09:26:01.060Z,11300
2016-07-16T09:27:01.068Z,11260
2016-07-16T09:28:01.072Z,11412
2016-07-16T09:29:01.083Z,11688
2016-07-16T09:30:02.609Z,11876
2016-07-16T09:31:01.101Z,11656
2016-07-16T09:32:01.110Z,11216
2016-07-16T09:33:01.120Z,11000
2016-07-16T09:34:01.123Z,10968
2016-07-16T09:35:01.141Z,11156
2016-07-16T09:36:01.136Z,12940
2016-07-16T09:37:01.141Z,15240
2016-07-16T09:38:01.842Z,17220
2016-07-16T09:39:01.156Z,18112
2016-07-16T09:40:01.166Z,16944
2016-07-16T09:41:01.176Z,16732
2016-07-16T09:42:01.172Z,17728
2016-07-16T09:43:01.187Z,19040
2016-07-16T09:44:01.189Z,20960
2016-07-16T09:45:01.196Z,22752
2016-07-16T09:46:01.202Z,23488
2016-07-16T09:47:01.213Z,23776
2016-07-16T09:48:01.215Z,23872
2016-07-16T09:49:01.218Z,23264
2016-07-16T09:50:01.225Z,21824
2016-07-16T09:51:01.240Z,19840
2016-07-16T09:52:01.247Z,19136
2016-07-16T09:53:01.253Z,19200
2016-07-16T09:54:01.257Z,19360
2016-07-16T09:55:01.257Z,19520
2016-07-16T09:56:01.273Z,18432
2016-07-16T09:57:01.277Z,17344
2016-07-16T09:58:01.285Z,16312
2016-07-16T09:59:01.300Z,15780
2016-07-16T10:00:01.296Z,14716
2016-07-16T10:01:01.295Z,12864
2016-07-16T10:02:01.310Z,12340
2016-07-16T10:03:01.315Z,12004
2016-07-16T10:04:01.326Z,11656
2016-07-16T10:05:02.040Z,11904
2016-07-16T10:06:03.564Z,12900
2016-07-16T10:07:02.751Z,13312
2016-07-16T10:08:03.964Z,13028
2016-07-16T10:09:01.685Z,12480
2016-07-16T10:10:01.358Z,11904
2016-07-16T10:11:01.362Z,11360
2016-07-16T10:12:01.374Z,10932
2016-07-16T10:13:17.097Z,10204
2016-07-16T10:14:02.895Z,10004
2016-07-16T10:15:03.395Z,10160
2016-07-16T10:16:03.086Z,9888
2016-07-16T10:17:16.875Z,9496
2016-07-16T10:18:03.285Z,9192
2016-07-16T10:19:02.110Z,8912
2016-07-16T10:20:01.421Z,8668
2016-07-16T10:21:01.782Z,8504
2016-07-16T10:22:17.560Z,8380
2016-07-16T10:23:02.938Z,8232
2016-07-16T10:25:16.368Z,8160
2016-07-16T10:26:01.448Z,8176
2016-07-16T10:27:01.488Z,8628
2016-07-16T10:28:02.178Z,8668
2016-07-16T10:29:01.669Z,8472
2016-07-16T10:30:01.493Z,8412
2016-07-16T10:31:01.484Z,8272
2016-07-16T10:32:01.495Z,8176
2016-07-16T10:33:01.493Z,8156
2016-07-16T10:34:01.701Z,8532
2016-07-16T10:35:01.510Z,9292
2016-07-16T10:36:01.525Z,9024
2016-07-16T10:37:01.508Z,8944
2016-07-16T10:38:01.520Z,9272
2016-07-16T10:39:01.526Z,9776
2016-07-16T10:40:01.528Z,10064
2016-07-16T10:41:01.537Z,9640
2016-07-16T10:42:01.542Z,9228
2016-07-16T10:43:01.555Z,8884
2016-07-16T10:44:02.249Z,8760
2016-07-16T10:45:01.560Z,8840
2016-07-16T10:46:01.557Z,9008
2016-07-16T10:47:01.564Z,8416
2016-07-16T10:48:01.577Z,8700
2016-07-16T10:49:01.570Z,10264
2016-07-16T10:50:01.582Z,10944
2016-07-16T10:51:01.583Z,11204
2016-07-16T10:52:01.593Z,11508
2016-07-16T10:53:01.589Z,11168
2016-07-16T10:54:01.596Z,10784
2016-07-16T10:55:01.596Z,11112
2016-07-16T10:56:01.617Z,12016
2016-07-16T10:57:01.612Z,12856
2016-07-16T10:58:01.610Z,13152
2016-07-16T10:59:01.624Z,12924
2016-07-16T11:00:01.632Z,13084
2016-07-16T11:01:01.624Z,13332
2016-07-16T11:02:01.627Z,12016
2016-07-16T11:03:01.641Z,11412
2016-07-16T11:04:01.640Z,11284
2016-07-16T11:05:01.646Z,11420
2016-07-16T11:06:01.654Z,12080
2016-07-16T11:07:01.662Z,13736
2016-07-16T11:08:01.653Z,15484
2016-07-16T11:09:01.668Z,16212
2016-07-16T11:10:01.675Z,15556
2016-07-16T11:11:01.676Z,14492
2016-07-16T11:12:01.680Z,14208
2016-07-16T11:13:01.687Z,14584
2016-07-16T11:14:01.691Z,15424
2016-07-16T11:15:01.696Z,15820
2016-07-16T11:16:01.712Z,14980
2016-07-16T11:17:01.708Z,13556
2016-07-16T11:18:01.716Z,12368
2016-07-16T11:19:01.736Z,11348
2016-07-16T11:20:01.728Z,10684
2016-07-16T11:21:01.740Z,10176
2016-07-16T11:22:01.738Z,9552
2016-07-16T11:23:01.741Z,8896
2016-07-16T11:24:04.673Z,8768
2016-07-16T11:25:03.479Z,8896
2016-07-16T11:26:02.421Z,8636
2016-07-16T11:27:01.764Z,8292
2016-07-16T11:28:01.994Z,7932
2016-07-16T11:29:02.110Z,7564
2016-07-16T11:30:01.785Z,7348
2016-07-16T11:31:02.444Z,7524
2016-07-16T11:32:01.964Z,7416
2016-07-16T11:33:03.242Z,7316
2016-07-16T11:34:03.553Z,7244
2016-07-16T11:35:04.653Z,7088
2016-07-16T11:36:03.840Z,7068
2016-07-16T11:37:02.532Z,7168
2016-07-16T11:38:02.564Z,7156
2016-07-16T11:39:02.076Z,7156
2016-07-16T11:40:03.108Z,6988
2016-07-16T11:41:03.497Z,6868
2016-07-16T11:42:17.471Z,6692
2016-07-16T11:43:02.753Z,6808
2016-07-16T11:44:01.852Z,7132
2016-07-16T11:45:01.860Z,7320
2016-07-16T11:46:01.866Z,7604
2016-07-16T11:47:01.871Z,7912
2016-07-16T11:48:01.982Z,8028
2016-07-16T11:49:01.889Z,8124
2016-07-16T11:50:01.878Z,8012
2016-07-16T11:51:01.897Z,7856
2016-07-16T11:52:01.889Z,7848
2016-07-16T11:53:01.895Z,7856
2016-07-16T11:54:01.901Z,7644
2016-07-16T11:55:01.907Z,7692
2016-07-16T11:56:02.609Z,8664
2016-07-16T11:57:01.914Z,10244
2016-07-16T11:58:01.924Z,11764
2016-07-16T11:59:01.930Z,12160
2016-07-16T12:00:01.930Z,11768
2016-07-16T12:01:01.932Z,11080
2016-07-16T12:02:01.942Z,10304
2016-07-16T12:03:01.942Z,10372
2016-07-16T12:04:01.949Z,10568
2016-07-16T12:05:01.964Z,11468
2016-07-16T12:06:01.956Z,12628
2016-07-16T12:07:01.974Z,13528
2016-07-16T12:08:01.974Z,13672
2016-07-16T12:09:01.967Z,13280
2016-07-16T12:10:01.975Z,13388
2016-07-16T12:11:01.992Z,12552
2016-07-16T12:12:01.992Z,11744
2016-07-16T12:13:01.990Z,10828
2016-07-16T12:14:02.006Z,9768
2016-07-16T12:15:02.012Z,8816
2016-07-16T12:16:02.012Z,8588
2016-07-16T12:17:02.014Z,8596
2016-07-16T12:18:02.018Z,8676
2016-07-16T12:19:02.728Z,8348
2016-07-16T12:20:02.026Z,7996
2016-07-16T12:21:02.037Z,7748
2016-07-16T12:22:02.043Z,7452
2016-07-16T12:23:02.045Z,7016
2016-07-16T12:24:02.136Z,6840
2016-07-16T12:25:02.052Z,6968
2016-07-16T12:26:02.060Z,7544
2016-07-16T12:27:02.066Z,7780
2016-07-16T12:28:02.075Z,7376
2016-07-16T12:29:02.077Z,6956
2016-07-16T12:30:02.079Z,6668
2016-07-16T12:31:02.092Z,6564
2016-07-16T12:32:02.095Z,6792
2016-07-16T12:33:02.097Z,7232
2016-07-16T12:34:02.113Z,7692
2016-07-16T12:35:02.100Z,7716
2016-07-16T12:36:02.117Z,7920
2016-07-16T12:37:02.118Z,8240
2016-07-16T12:38:02.121Z,8696
2016-07-16T12:39:02.129Z,9400
2016-07-16T12:40:02.133Z,10024
2016-07-16T12:41:02.142Z,9932
2016-07-16T12:42:03.657Z,8632
2016-07-16T12:43:21.386Z,7212
2016-07-16T12:44:03.552Z,6836
2016-07-16T12:45:03.360Z,6564
2016-07-16T12:46:02.831Z,6300
2016-07-16T12:47:03.207Z,6392
2016-07-16T12:48:02.169Z,6680
2016-07-16T12:49:18.198Z,6796
2016-07-16T12:50:02.976Z,6768
2016-07-16T12:51:05.275Z,6632
2016-07-16T12:52:03.417Z,6444
2016-07-16T12:53:02.342Z,6252
2016-07-16T12:54:02.746Z,6012
2016-07-16T12:55:02.363Z,6004
2016-07-16T12:56:03.268Z,6012
2016-07-16T12:57:02.210Z,6164
2016-07-16T12:58:02.219Z,6240
2016-07-16T12:59:03.766Z,6360
2016-07-16T13:00:03.277Z,6404
2016-07-16T13:01:02.228Z,6304
2016-07-16T13:02:02.634Z,6136
2016-07-16T13:03:02.240Z,5988
2016-07-16T13:04:02.249Z,5888
2016-07-16T13:05:02.242Z,5892
2016-07-16T13:06:02.257Z,5872
2016-07-16T13:07:02.258Z,5840
2016-07-16T13:08:02.955Z,5888
2016-07-16T13:09:02.268Z,5908
2016-07-16T13:10:02.292Z,5928
2016-07-16T13:11:02.275Z,5900
2016-07-16T13:12:02.274Z,5872
2016-07-16T13:13:02.281Z,5828
2016-07-16T13:14:02.291Z,5752
2016-07-16T13:15:02.287Z,5760
2016-07-16T13:16:02.300Z,5744
2016-07-16T13:17:02.299Z,5728
2016-07-16T13:18:02.313Z,5680
2016-07-16T13:19:02.305Z,5640
2016-07-16T13:20:02.312Z,5640
2016-07-16T13:21:02.318Z,5612
2016-07-16T13:22:02.327Z,5604
2016-07-16T13:23:02.335Z,5624
2016-07-16T13:24:02.328Z,5660
2016-07-16T13:25:02.337Z,5768
2016-07-16T13:26:02.344Z,5984
2016-07-16T13:27:02.341Z,6336
2016-07-16T13:28:03.043Z,6524
2016-07-16T13:29:02.349Z,6344
2016-07-16T13:30:02.356Z,5808
2016-07-16T13:31:02.361Z,5500
2016-07-16T13:32:02.361Z,5372
2016-07-16T13:33:02.366Z,5296
2016-07-16T13:34:02.379Z,5252
2016-07-16T13:35:02.378Z,5260
2016-07-16T13:36:02.381Z,5296
2016-07-16T13:37:02.389Z,5328
2016-07-16T13:38:02.387Z,5344
2016-07-16T13:39:02.393Z,5340
2016-07-16T13:40:02.395Z,5332
2016-07-16T13:41:02.399Z,5308
2016-07-16T13:42:02.407Z,5340
2016-07-16T13:43:02.404Z,5388
2016-07-16T13:44:02.414Z,5424
2016-07-16T13:45:02.419Z,5448
2016-07-16T13:46:02.422Z,5476
2016-07-16T13:47:02.425Z,5520